KAOO

Altoona-Blair County Airport

Altoona, Pennsylvania, USA
METAR KAOO 201153Z AUTO 22011G18KT 10SM CLR 04/M03 A2995 RMK AO2 SLP151 T00441028 10050 20028 53010
Observed Flight Rules
Jan-20 @ 11:53 UTC (an hour ago) Visual Flight Rules
Wind Visibility Clouds
220° at 11 knots
 Gusting to 18 knots
10 miles
  • Clear skies
Temperatures Readings
Current 4°C / 39°F
Dewpoint -3°C / 27°F
Humidity 61%
Altimeter 29.95" Hg
Pressure 1015.1 hPa
Elevation 455
METAR KAOO 201153Z AUTO 22011G18KT 10SM CLR 04/M03 A2995 RMK AO2 SLP151 T00441028 10050 20028 53010
Observed Flight Rules
Jan-20 @ 11:53 UTC
(an hour ago)
VFR
Wind Visibility
220° at 11 knots
 Gusting to 18 knots
10 miles
Clouds
  • Clear skies
Temperature Dewpoint
4°C / 39°F -3°C / 27°F
Humidity Altimeter Pressure
61% 29.95" Hg 1015.1 hPa